createdAt,value
2019-02-07T00:01:51.157Z,18.93
2019-02-07T00:04:21.122Z,19.57
2019-02-07T00:06:51.135Z,18.30
2019-02-07T00:09:21.081Z,18.30
2019-02-07T00:11:51.278Z,19.17
2019-02-07T00:14:21.141Z,18.03
2019-02-07T00:16:51.205Z,18.00
2019-02-07T00:19:21.322Z,18.40
2019-02-07T00:21:51.229Z,17.77
2019-02-07T00:24:21.030Z,18.07
2019-02-07T00:26:50.978Z,17.77
2019-02-07T00:29:20.919Z,17.20
2019-02-07T00:31:50.932Z,17.97
2019-02-07T00:34:20.883Z,17.97
2019-02-07T00:36:50.822Z,17.10
2019-02-07T00:39:21.108Z,17.03
2019-02-07T00:41:51.039Z,17.27
2019-02-07T00:44:20.973Z,16.37
2019-02-07T00:46:50.850Z,17.23
2019-02-07T00:49:20.786Z,16.83
2019-02-07T00:51:51.710Z,17.47
2019-02-07T00:54:21.651Z,15.97
2019-02-07T00:56:51.688Z,16.10
2019-02-07T00:59:21.702Z,16.13
2019-02-07T01:01:51.836Z,16.10
2019-02-07T01:04:21.770Z,16.23
2019-02-07T01:06:52.130Z,16.60
2019-02-07T01:09:22.070Z,16.37
2019-02-07T01:11:52.146Z,15.20
2019-02-07T01:14:22.103Z,16.07
2019-02-07T01:16:52.165Z,16.03
2019-02-07T01:19:22.115Z,16.07
2019-02-07T01:21:52.204Z,16.23
2019-02-07T01:24:22.173Z,16.57
2019-02-07T01:26:52.101Z,15.63
2019-02-07T01:29:21.975Z,15.67
2019-02-07T01:31:51.985Z,16.03
2019-02-07T01:34:22.005Z,15.53
2019-02-07T01:36:51.867Z,15.90
2019-02-07T01:39:21.970Z,15.40
2019-02-07T01:41:51.930Z,15.70
2019-02-07T01:44:21.896Z,15.47
2019-02-07T01:46:51.742Z,14.90
2019-02-07T01:49:21.878Z,15.27
2019-02-07T01:51:51.814Z,14.43
2019-02-07T01:54:21.688Z,15.17
2019-02-07T01:56:51.704Z,15.07
2019-02-07T01:59:21.713Z,14.97
2019-02-07T02:01:51.729Z,14.77
2019-02-07T02:04:21.955Z,14.60
2019-02-07T02:06:51.948Z,14.67
2019-02-07T02:09:21.962Z,15.00
2019-02-07T02:11:51.902Z,14.33
2019-02-07T02:14:21.914Z,14.27
2019-02-07T02:16:51.874Z,14.37
2019-02-07T02:19:21.810Z,14.67
2019-02-07T02:21:51.769Z,14.53
2019-02-07T02:24:21.634Z,14.60
2019-02-07T02:26:51.644Z,14.40
2019-02-07T02:29:21.665Z,14.47
2019-02-07T02:31:54.836Z,14.90
2019-02-07T02:34:25.694Z,13.87
2019-02-07T02:36:55.651Z,14.57
2019-02-07T02:39:25.556Z,14.37
2019-02-07T02:41:55.650Z,13.47
2019-02-07T02:44:25.533Z,13.67
2019-02-07T02:46:55.700Z,14.23
2019-02-07T02:49:25.630Z,14.17
2019-02-07T02:51:55.533Z,14.10
2019-02-07T02:54:46.983Z,14.23
2019-02-07T02:57:17.118Z,14.33
2019-02-07T02:59:46.987Z,13.33
2019-02-07T03:02:47.996Z,13.83
2019-02-07T03:05:27.448Z,13.40
2019-02-07T03:08:22.342Z,13.57
2019-02-07T03:11:11.251Z,14.50
2019-02-07T03:14:00.179Z,13.30
2019-02-07T03:17:07.018Z,14.47
2019-02-07T03:19:52.101Z,14.00
2019-02-07T03:22:39.444Z,13.37
2019-02-07T03:25:26.987Z,13.77
2019-02-07T03:28:25.151Z,13.33
2019-02-07T03:31:32.052Z,13.60
2019-02-07T03:34:22.306Z,13.40
2019-02-07T03:37:06.351Z,13.60
2019-02-07T03:39:55.828Z,13.33
2019-02-07T03:42:52.654Z,13.60
2019-02-07T03:45:41.920Z,13.20
2019-02-07T03:48:27.765Z,12.77
2019-02-07T03:51:19.513Z,13.17
2019-02-07T03:54:11.226Z,13.23
2019-02-07T03:56:58.505Z,13.13
2019-02-07T03:59:39.853Z,13.87
2019-02-07T04:02:28.803Z,13.03
2019-02-07T04:05:17.870Z,12.37
2019-02-07T04:08:09.553Z,12.90
2019-02-07T04:11:01.851Z,13.07
2019-02-07T04:13:50.834Z,13.33
2019-02-07T04:16:40.120Z,12.70
2019-02-07T04:19:37.976Z,12.60
2019-02-07T04:22:25.939Z,13.10
2019-02-07T04:25:13.325Z,12.90
2019-02-07T04:28:05.397Z,12.93
2019-02-07T04:30:57.322Z,12.93
2019-02-07T04:33:49.417Z,13.27
2019-02-07T04:36:37.042Z,12.53
2019-02-07T04:39:27.877Z,12.63
2019-02-07T04:42:25.801Z,12.57
2019-02-07T04:45:13.382Z,12.40
2019-02-07T04:48:02.358Z,11.93
2019-02-07T04:51:00.320Z,12.60
2019-02-07T04:53:47.902Z,12.10
2019-02-07T04:56:35.468Z,12.50
2019-02-07T04:59:16.082Z,12.33
2019-02-07T05:02:05.082Z,11.67
2019-02-07T05:05:07.460Z,12.03
2019-02-07T05:08:02.317Z,12.10
2019-02-07T05:10:54.045Z,11.43
2019-02-07T05:13:52.424Z,11.67
2019-02-07T05:16:43.758Z,11.90
2019-02-07T05:19:30.877Z,12.67
2019-02-07T05:22:23.710Z,11.90
2019-02-07T05:25:12.681Z,11.90
2019-02-07T05:27:59.882Z,12.07
2019-02-07T05:30:47.506Z,11.93
2019-02-07T05:33:35.530Z,12.17
2019-02-07T05:36:24.423Z,12.40
2019-02-07T05:39:19.223Z,12.43
2019-02-07T05:42:17.113Z,12.00
2019-02-07T05:45:14.477Z,12.53
2019-02-07T05:48:00.171Z,12.33
2019-02-07T05:50:49.138Z,12.50
2019-02-07T05:53:35.754Z,12.23
2019-02-07T05:56:20.098Z,11.40
2019-02-07T05:59:11.189Z,12.00
2019-02-07T06:02:06.272Z,11.63
2019-02-07T06:04:46.601Z,12.50
2019-02-07T06:07:34.162Z,11.80
2019-02-07T06:10:26.678Z,11.73
2019-02-07T06:13:07.751Z,11.90
2019-02-07T06:16:02.492Z,12.23
2019-02-07T06:18:50.492Z,11.80
2019-02-07T06:21:52.021Z,12.17
2019-02-07T06:24:39.395Z,11.30
2019-02-07T06:27:40.326Z,11.60
2019-02-07T06:30:43.088Z,11.77
2019-02-07T06:33:43.853Z,11.60
2019-02-07T06:36:35.774Z,11.57
2019-02-07T06:39:31.649Z,11.23
2019-02-07T06:42:19.645Z,11.53
2019-02-07T06:45:00.914Z,11.63
2019-02-07T06:48:08.297Z,10.97
2019-02-07T06:51:44.661Z,11.33
2019-02-07T06:54:45.544Z,11.37
2019-02-07T06:57:24.802Z,11.00
2019-02-07T07:00:13.794Z,11.63
2019-02-07T07:03:08.892Z,11.50
2019-02-07T07:06:00.946Z,11.40
2019-02-07T07:09:04.822Z,10.83
2019-02-07T07:11:52.029Z,11.23
2019-02-07T07:14:43.973Z,10.50
2019-02-07T07:17:35.944Z,10.80
2019-02-07T07:20:37.276Z,11.07
2019-02-07T07:23:41.151Z,10.60
2019-02-07T07:26:25.930Z,11.00
2019-02-07T07:29:14.826Z,10.87
2019-02-07T07:32:02.545Z,10.93
2019-02-07T07:34:57.502Z,10.80
2019-02-07T07:37:39.409Z,10.87
2019-02-07T07:40:47.700Z,10.90
2019-02-07T07:43:45.510Z,11.50
2019-02-07T07:46:46.305Z,10.87
2019-02-07T07:49:30.985Z,11.17
2019-02-07T07:52:18.424Z,11.00
2019-02-07T07:54:53.625Z,11.20
2019-02-07T07:57:39.503Z,10.63
2019-02-07T08:00:27.005Z,10.40
2019-02-07T08:03:25.042Z,10.87
2019-02-07T08:06:12.985Z,10.60
2019-02-07T08:08:58.638Z,10.03
2019-02-07T08:11:45.118Z,9.87
2019-02-07T08:14:32.484Z,9.97
2019-02-07T08:17:24.202Z,9.90
2019-02-07T08:20:11.497Z,10.00
2019-02-07T08:23:06.253Z,10.20
2019-02-07T08:25:58.147Z,16.17
2019-02-07T08:28:51.651Z,60.23
2019-02-07T08:31:58.767Z,118.10
2019-02-07T08:34:50.631Z,152.30
2019-02-07T08:37:48.500Z,151.13
2019-02-07T08:40:32.134Z,145.37
2019-02-07T08:43:21.534Z,127.47
2019-02-07T08:46:09.094Z,119.33
2019-02-07T08:49:03.736Z,118.00
2019-02-07T08:51:54.312Z,109.60
2019-02-07T08:54:45.963Z,105.90
2019-02-07T08:57:36.573Z,98.27
2019-02-07T09:00:43.563Z,99.60
2019-02-07T09:03:21.646Z,96.00
2019-02-07T09:06:08.970Z,90.67
2019-02-07T09:08:46.861Z,85.43
2019-02-07T09:11:41.948Z,86.63
2019-02-07T09:14:37.806Z,81.30
2019-02-07T09:17:32.872Z,77.77
2019-02-07T09:20:14.222Z,76.30
2019-02-07T09:23:01.937Z,72.17
2019-02-07T09:25:47.924Z,71.23
2019-02-07T09:28:35.254Z,69.37
2019-02-07T09:31:23.150Z,65.13
2019-02-07T09:34:20.935Z,66.73
2019-02-07T09:37:14.538Z,62.80
2019-02-07T09:40:03.517Z,63.60
2019-02-07T09:43:01.330Z,61.80
2019-02-07T09:45:48.665Z,58.83
2019-02-07T09:48:40.103Z,60.00
2019-02-07T09:51:18.238Z,59.50
2019-02-07T09:54:10.007Z,58.43
2019-02-07T09:57:03.010Z,56.17
2019-02-07T09:59:51.131Z,54.93
2019-02-07T10:02:46.036Z,53.17
2019-02-07T10:05:27.587Z,53.33
2019-02-07T10:08:15.170Z,51.43
2019-02-07T10:11:05.065Z,50.93
2019-02-07T10:13:52.387Z,49.63
2019-02-07T10:16:59.335Z,49.73
2019-02-07T10:19:40.778Z,47.53
2019-02-07T10:22:27.686Z,46.87
2019-02-07T10:25:11.238Z,47.03
2019-02-07T10:28:09.059Z,47.27
2019-02-07T10:31:01.118Z,45.30
2019-02-07T10:33:55.968Z,45.97
2019-02-07T10:36:47.722Z,45.33
2019-02-07T10:39:26.078Z,44.00
2019-02-07T10:42:09.424Z,43.43
2019-02-07T10:45:00.038Z,44.03
2019-02-07T10:48:21.662Z,43.33
2019-02-07T10:51:07.115Z,43.20
2019-02-07T10:53:56.185Z,41.50
2019-02-07T10:56:57.861Z,40.60
2019-02-07T10:59:40.877Z,38.07
2019-02-07T11:02:32.642Z,40.30
2019-02-07T11:05:20.253Z,38.67
2019-02-07T11:08:12.263Z,36.93
2019-02-07T11:11:16.533Z,37.40
2019-02-07T11:14:14.205Z,35.90
2019-02-07T11:16:59.094Z,36.27
2019-02-07T11:19:50.846Z,33.63
2019-02-07T11:22:54.808Z,33.70
2019-02-07T11:25:52.822Z,32.90
2019-02-07T11:28:41.726Z,33.10
2019-02-07T11:31:36.456Z,32.23
2019-02-07T11:34:23.963Z,32.87
2019-02-07T11:37:24.734Z,31.67
2019-02-07T11:40:16.689Z,30.63
2019-02-07T11:43:01.977Z,30.77
2019-02-07T11:45:49.502Z,30.17
2019-02-07T11:48:35.582Z,29.60
2019-02-07T11:51:36.710Z,30.43
2019-02-07T11:54:26.578Z,29.83
2019-02-07T12:00:35.845Z,28.00
2019-02-07T12:03:23.703Z,27.50
2019-02-07T12:06:11.321Z,26.90
2019-02-07T12:08:54.193Z,27.13
2019-02-07T12:11:55.354Z,27.23
2019-02-07T12:14:47.023Z,26.83
2019-02-07T12:17:31.446Z,25.07
2019-02-07T12:20:29.482Z,25.73
2019-02-07T12:23:21.142Z,25.97
2019-02-07T12:26:15.910Z,24.60
2019-02-07T12:29:11.213Z,24.27
2019-02-07T12:32:06.038Z,24.60
2019-02-07T12:35:00.957Z,23.67
2019-02-07T12:37:56.893Z,23.30
2019-02-07T12:40:53.478Z,22.97
2019-02-07T12:43:35.505Z,22.90
2019-02-07T12:46:23.158Z,23.27
2019-02-07T12:49:29.221Z,22.73
2019-02-07T12:52:11.224Z,21.90
2019-02-07T12:54:55.178Z,22.53
2019-02-07T12:57:49.863Z,21.30
2019-02-07T13:00:37.075Z,21.57
2019-02-07T13:03:44.073Z,20.83
2019-02-07T13:06:32.957Z,21.47
2019-02-07T13:09:20.585Z,20.27
2019-02-07T13:12:24.693Z,19.53
2019-02-07T13:15:13.617Z,19.67
2019-02-07T13:18:01.995Z,19.70
2019-02-07T13:20:44.161Z,19.10
2019-02-07T13:23:31.747Z,19.10
2019-02-07T13:26:17.184Z,19.20
2019-02-07T13:29:04.775Z,17.83
2019-02-07T13:32:05.951Z,17.90
2019-02-07T13:34:54.394Z,18.73
2019-02-07T13:37:36.502Z,18.40
2019-02-07T13:40:18.634Z,17.93
2019-02-07T13:43:10.405Z,18.10
2019-02-07T13:45:57.983Z,16.97
2019-02-07T13:48:40.278Z,16.67
2019-02-07T13:51:33.094Z,17.73
2019-02-07T13:54:19.760Z,17.10
2019-02-07T13:57:24.223Z,16.37
2019-02-07T14:00:23.485Z,16.27
2019-02-07T14:03:15.660Z,16.40
2019-02-07T14:06:07.757Z,15.33
2019-02-07T14:08:58.745Z,15.13
2019-02-07T14:11:47.669Z,15.17
2019-02-07T14:14:37.122Z,15.83
2019-02-07T14:17:44.216Z,15.40
2019-02-07T14:20:23.093Z,15.20
2019-02-07T14:23:29.816Z,14.20
2019-02-07T14:26:11.266Z,14.83
2019-02-07T14:29:00.193Z,14.90
2019-02-07T14:31:47.950Z,15.23
2019-02-07T14:34:42.070Z,15.13
2019-02-07T14:37:27.181Z,14.03
2019-02-07T14:40:22.180Z,13.73
2019-02-07T14:42:57.214Z,14.20
2019-02-07T14:45:56.251Z,14.17
2019-02-07T14:48:27.288Z,13.47
2019-02-07T14:50:57.227Z,13.03
2019-02-07T14:53:27.191Z,14.30
2019-02-07T14:55:57.119Z,14.03
2019-02-07T14:58:27.076Z,14.43
2019-02-07T15:00:57.036Z,13.97
2019-02-07T15:03:27.255Z,14.27
2019-02-07T15:05:57.129Z,13.93
2019-02-07T15:08:27.144Z,13.73
2019-02-07T15:10:57.107Z,14.33
2019-02-07T15:13:27.300Z,14.20
2019-02-07T15:15:57.511Z,13.13
2019-02-07T15:18:27.758Z,13.67
2019-02-07T15:20:58.923Z,13.70
2019-02-07T15:23:28.990Z,13.43
2019-02-07T15:25:59.026Z,14.23
2019-02-07T15:28:29.018Z,12.90
2019-02-07T15:30:59.051Z,13.60
2019-02-07T15:33:28.969Z,13.13
2019-02-07T15:35:58.931Z,13.80
2019-02-07T15:38:28.946Z,13.77
2019-02-07T15:40:58.970Z,13.40
2019-02-07T15:43:28.870Z,13.67
2019-02-07T15:45:59.136Z,13.80
2019-02-07T15:48:29.081Z,13.27
2019-02-07T15:50:59.015Z,13.20
2019-02-07T15:53:29.042Z,13.83
2019-02-07T15:55:59.042Z,13.70
2019-02-07T15:59:15.752Z,13.17
2019-02-07T16:01:53.469Z,13.20
2019-02-07T16:04:26.754Z,13.57
2019-02-07T16:06:56.629Z,15.20
2019-02-07T16:09:26.709Z,67.40
2019-02-07T16:11:56.565Z,52.87
2019-02-07T16:14:26.524Z,75.57
2019-02-07T16:16:56.572Z,79.90
2019-02-07T16:19:27.619Z,75.30
2019-02-07T16:21:57.523Z,77.47
2019-02-07T16:24:27.394Z,70.43
2019-02-07T16:26:57.334Z,57.50
2019-02-07T16:29:27.237Z,62.33
2019-02-07T16:31:57.382Z,61.83
2019-02-07T16:34:27.318Z,62.83
2019-02-07T16:36:57.274Z,59.97
2019-02-07T16:39:27.239Z,57.20
2019-02-07T16:42:06.264Z,56.77
2019-02-07T16:44:28.874Z,53.40
2019-02-07T16:46:58.986Z,52.97
2019-02-07T16:49:28.855Z,51.13
2019-02-07T16:51:58.825Z,49.30
2019-02-07T16:54:28.753Z,48.33
2019-02-07T16:56:58.723Z,46.83
2019-02-07T16:59:29.037Z,47.47
2019-02-07T17:01:59.049Z,45.70
2019-02-07T17:04:29.009Z,44.67
2019-02-07T17:06:58.998Z,43.60
2019-02-07T17:09:33.096Z,42.37
2019-02-07T17:12:03.058Z,42.73
2019-02-07T17:14:33.086Z,41.20
2019-02-07T17:17:05.451Z,39.60
2019-02-07T17:19:34.814Z,38.93
2019-02-07T17:22:04.837Z,38.50
2019-02-07T17:24:34.865Z,38.10
2019-02-07T17:27:05.174Z,37.30
2019-02-07T17:29:35.115Z,36.53
2019-02-07T17:32:05.130Z,34.80
2019-02-07T17:34:34.977Z,34.13
2019-02-07T17:37:04.909Z,32.63
2019-02-07T17:39:34.813Z,32.97
2019-02-07T17:42:05.014Z,32.33
2019-02-07T17:44:34.951Z,33.07
2019-02-07T17:47:04.958Z,30.90
2019-02-07T17:49:34.871Z,31.37
2019-02-07T17:52:04.830Z,30.97
2019-02-07T17:54:34.895Z,29.10
2019-02-07T17:57:05.035Z,29.37
2019-02-07T17:59:34.977Z,28.83
2019-02-07T18:02:24.097Z,28.40
2019-02-07T18:04:58.819Z,27.67
2019-02-07T18:07:28.754Z,27.77
2019-02-07T18:09:58.762Z,27.83
2019-02-07T18:12:28.702Z,27.50
2019-02-07T18:14:58.765Z,26.57
2019-02-07T18:17:28.626Z,26.33
2019-02-07T18:19:58.645Z,26.07
2019-02-07T18:22:28.662Z,24.90
2019-02-07T18:24:58.758Z,25.67
2019-02-07T18:27:28.857Z,25.40
2019-02-07T18:29:58.837Z,24.07
2019-02-07T18:32:29.772Z,24.63
2019-02-07T18:34:59.937Z,24.47
2019-02-07T18:37:29.975Z,24.27
2019-02-07T18:39:59.919Z,24.23
2019-02-07T18:42:29.889Z,23.73
2019-02-07T18:45:01.147Z,22.47
2019-02-07T18:47:31.549Z,24.23
2019-02-07T18:50:01.837Z,23.67
2019-02-07T18:52:33.722Z,22.70
2019-02-07T18:55:03.821Z,22.27
2019-02-07T18:57:33.687Z,23.33
2019-02-07T19:00:03.790Z,22.33
2019-02-07T19:02:33.841Z,21.10
2019-02-07T19:05:03.850Z,21.83
2019-02-07T19:07:41.800Z,21.60
2019-02-07T19:10:13.243Z,21.37
2019-02-07T19:12:43.167Z,21.00
2019-02-07T19:15:16.230Z,20.83
2019-02-07T19:17:46.176Z,20.87
2019-02-07T19:20:17.607Z,20.63
2019-02-07T19:22:47.539Z,19.87
2019-02-07T19:25:17.650Z,18.57
2019-02-07T19:27:47.671Z,20.07
2019-02-07T19:30:20.909Z,18.90
2019-02-07T19:32:50.877Z,19.07
2019-02-07T19:35:20.973Z,18.37
2019-02-07T19:37:51.247Z,17.83
2019-02-07T19:40:23.815Z,18.20
2019-02-07T19:42:53.738Z,19.13
2019-02-07T19:45:23.754Z,17.50
2019-02-07T19:47:53.797Z,17.23
2019-02-07T19:50:24.972Z,17.57
2019-02-07T19:52:54.859Z,17.40
2019-02-07T19:55:26.477Z,16.70
2019-02-07T19:57:58.492Z,17.47
2019-02-07T20:00:30.027Z,17.37
2019-02-07T20:03:00.088Z,17.10
2019-02-07T20:05:30.127Z,16.50
2019-02-07T20:08:00.228Z,16.87
2019-02-07T20:10:30.169Z,16.90
2019-02-07T20:13:00.477Z,16.30
2019-02-07T20:15:32.314Z,16.77
2019-02-07T20:18:02.355Z,16.07
2019-02-07T20:20:32.326Z,16.47
2019-02-07T20:23:02.351Z,16.00
2019-02-07T20:25:32.407Z,16.00
2019-02-07T20:28:02.628Z,16.73
2019-02-07T20:30:34.987Z,16.03
2019-02-07T20:33:05.646Z,16.20
2019-02-07T20:35:35.626Z,15.77
2019-02-07T20:38:06.843Z,15.97
2019-02-07T20:40:36.854Z,15.83
2019-02-07T20:43:07.276Z,15.93
2019-02-07T20:45:37.237Z,15.77
2019-02-07T20:48:08.423Z,15.77
2019-02-07T20:50:38.412Z,15.30
2019-02-07T20:53:10.545Z,15.27
2019-02-07T20:55:40.628Z,15.50
2019-02-07T20:58:10.670Z,15.63
2019-02-07T21:00:40.756Z,15.20
2019-02-07T21:03:10.720Z,14.87
2019-02-07T21:05:41.723Z,15.20
2019-02-07T21:08:11.613Z,14.00
2019-02-07T21:10:41.653Z,15.40
2019-02-07T21:13:12.923Z,15.13
2019-02-07T21:15:42.970Z,14.80
2019-02-07T21:18:13.969Z,14.87
2019-02-07T21:20:43.935Z,15.10
2019-02-07T21:23:13.986Z,15.20
2019-02-07T21:25:46.374Z,15.07
2019-02-07T21:28:16.335Z,14.33
2019-02-07T21:30:46.385Z,14.70
2019-02-07T21:33:16.446Z,14.80
2019-02-07T21:35:46.460Z,14.57
2019-02-07T21:38:16.498Z,14.67
2019-02-07T21:40:46.552Z,14.90
2019-02-07T21:43:16.818Z,14.43
2019-02-07T21:45:47.091Z,14.63
2019-02-07T21:48:18.001Z,14.40
2019-02-07T21:50:47.970Z,13.93
2019-02-07T21:53:18.043Z,14.73
2019-02-07T21:55:48.061Z,14.57
2019-02-07T21:58:18.389Z,14.90
2019-02-07T22:00:48.270Z,15.30
2019-02-07T22:03:18.298Z,15.50
2019-02-07T22:05:48.265Z,14.93
2019-02-07T22:08:18.438Z,14.23
2019-02-07T22:10:48.511Z,15.37
2019-02-07T22:13:18.555Z,14.73
2019-02-07T22:15:48.489Z,14.70
2019-02-07T22:18:18.436Z,14.73
2019-02-07T22:20:48.458Z,15.10
2019-02-07T22:23:18.510Z,14.87
2019-02-07T22:25:48.504Z,13.80
2019-02-07T22:28:18.437Z,14.50
2019-02-07T22:30:48.441Z,13.50
2019-02-07T22:33:18.378Z,15.20
2019-02-07T22:35:48.258Z,14.87
2019-02-07T22:38:18.209Z,14.90
2019-02-07T22:40:48.470Z,14.57
2019-02-07T22:43:18.504Z,14.87
2019-02-07T22:45:48.385Z,15.77
2019-02-07T22:48:18.355Z,14.67
2019-02-07T22:50:48.302Z,15.37
2019-02-07T22:53:18.345Z,15.50
2019-02-07T22:55:48.586Z,14.63
2019-02-07T22:58:18.389Z,14.20
2019-02-07T23:01:27.198Z,14.70
2019-02-07T23:03:59.287Z,14.80
2019-02-07T23:06:29.172Z,14.97
2019-02-07T23:08:59.981Z,14.87
2019-02-07T23:11:29.916Z,14.97
2019-02-07T23:13:59.841Z,14.73
2019-02-07T23:16:30.173Z,14.13
2019-02-07T23:19:00.105Z,14.60
2019-02-07T23:21:30.176Z,13.80
2019-02-07T23:24:00.210Z,14.57
2019-02-07T23:26:30.283Z,13.93
2019-02-07T23:29:00.301Z,14.73
2019-02-07T23:31:30.558Z,14.63
2019-02-07T23:34:00.568Z,14.57
2019-02-07T23:36:30.614Z,14.67
2019-02-07T23:39:00.549Z,14.97
2019-02-07T23:41:30.516Z,14.70
2019-02-07T23:44:00.450Z,14.70
2019-02-07T23:46:30.471Z,13.80
2019-02-07T23:49:01.472Z,14.53
2019-02-07T23:51:31.408Z,14.80
2019-02-07T23:54:01.298Z,15.63
2019-02-07T23:56:31.246Z,14.83
2019-02-07T23:59:01.216Z,14.83
